KKLS/KLS METAR and TAF weather

Enter ICAO airport designator
Station Type Date Time Source
KKLS METAR 2020/08/11 18:56 UTC NOAA

KKLS 111856Z AUTO VRB04KT 10SM BKN030 20/12 A3000 RMK AO2 SLP163 T02000117


Station Type Date Time Source
KKLS Decoded METAR 2020/08/11 18:56 UTC NOAA

Kelso, Kelso-Longview Airport, WA, United States (KKLS) 46-07N 122-54W
Aug 11, 2020 - 02:56 PM EDT / 2020.08.11 1856 UTC
Wind: Variable at 5 MPH (4 KT):0
Visibility: 10 mile(s):0
Sky conditions: mostly cloudy
Temperature: 68.0 F (20.0 C)
Dew Point: 53.1 F (11.7 C)
Relative Humidity: 58%
Pressure (altimeter): 30 in. Hg (1015 hPa)
ob: KKLS 111856Z AUTO VRB04KT 10SM BKN030 20/12 A3000 RMK AO2 SLP163 T02000117
cycle: 19

Station Type Date Time Source
KKLS TAF UTC NOAA

Error!

Example: see airport list